sensor_id;sensor_type;location;lat;lon;timestamp;pressure;altitude;pressure_sealevel;temperature;humidity
36404;BME280;22437;55.646;37.518;2022-09-04T00:00:04;99332.25;;;10.74;60.91
36404;BME280;22437;55.646;37.518;2022-09-04T00:03:03;99336.00;;;10.82;61.04
36404;BME280;22437;55.646;37.518;2022-09-04T00:05:43;99341.06;;;10.71;60.80
36404;BME280;22437;55.646;37.518;2022-09-04T00:08:29;99343.47;;;10.73;61.05
36404;BME280;22437;55.646;37.518;2022-09-04T00:11:08;99342.72;;;10.64;61.32
36404;BME280;22437;55.646;37.518;2022-09-04T00:13:49;99352.69;;;10.60;61.60
36404;BME280;22437;55.646;37.518;2022-09-04T00:16:22;99351.13;;;10.58;61.23
36404;BME280;22437;55.646;37.518;2022-09-04T00:18:57;99356.91;;;10.57;61.50
36404;BME280;22437;55.646;37.518;2022-09-04T00:21:36;99350.06;;;10.51;61.83
36404;BME280;22437;55.646;37.518;2022-09-04T00:24:10;99349.25;;;10.50;61.79
36404;BME280;22437;55.646;37.518;2022-09-04T00:26:48;99344.03;;;10.45;62.01
36404;BME280;22437;55.646;37.518;2022-09-04T00:29:28;99342.88;;;10.46;61.92
36404;BME280;22437;55.646;37.518;2022-09-04T00:32:09;99347.53;;;10.46;62.00
36404;BME280;22437;55.646;37.518;2022-09-04T00:34:52;99348.66;;;10.45;61.95
36404;BME280;22437;55.646;37.518;2022-09-04T00:37:27;99341.50;;;10.40;61.89
36404;BME280;22437;55.646;37.518;2022-09-04T00:40:02;99346.50;;;10.38;62.08
36404;BME280;22437;55.646;37.518;2022-09-04T00:42:51;99338.09;;;10.43;62.27
36404;BME280;22437;55.646;37.518;2022-09-04T00:45:34;99333.88;;;10.33;62.60
36404;BME280;22437;55.646;37.518;2022-09-04T00:48:18;99341.41;;;10.28;62.89
36404;BME280;22437;55.646;37.518;2022-09-04T00:51:09;99343.97;;;10.33;63.02
36404;BME280;22437;55.646;37.518;2022-09-04T00:54:03;99334.34;;;10.35;62.55
36404;BME280;22437;55.646;37.518;2022-09-04T01:00:04;99330.41;;;10.24;62.91
36404;BME280;22437;55.646;37.518;2022-09-04T01:02:49;99344.81;;;10.25;62.75
36404;BME280;22437;55.646;37.518;2022-09-04T01:05:37;99340.34;;;10.20;62.74
36404;BME280;22437;55.646;37.518;2022-09-04T01:08:15;99330.47;;;10.15;63.01
36404;BME280;22437;55.646;37.518;2022-09-04T01:10:53;99333.38;;;10.10;63.00
36404;BME280;22437;55.646;37.518;2022-09-04T01:13:32;99341.41;;;10.07;63.24
36404;BME280;22437;55.646;37.518;2022-09-04T01:16:06;99344.47;;;10.05;63.19
36404;BME280;22437;55.646;37.518;2022-09-04T01:18:44;99345.41;;;10.09;63.31
36404;BME280;22437;55.646;37.518;2022-09-04T01:21:46;99347.56;;;10.16;63.62
36404;BME280;22437;55.646;37.518;2022-09-04T01:24:32;99344.47;;;10.05;63.86
36404;BME280;22437;55.646;37.518;2022-09-04T01:27:14;99344.97;;;9.98;63.85
36404;BME280;22437;55.646;37.518;2022-09-04T01:29:55;99346.44;;;9.96;63.54
36404;BME280;22437;55.646;37.518;2022-09-04T01:32:34;99339.25;;;9.91;63.94
36404;BME280;22437;55.646;37.518;2022-09-04T01:35:14;99345.06;;;9.90;63.76
36404;BME280;22437;55.646;37.518;2022-09-04T01:37:54;99350.34;;;9.86;63.88
36404;BME280;22437;55.646;37.518;2022-09-04T01:40:43;99342.78;;;9.92;63.95
36404;BME280;22437;55.646;37.518;2022-09-04T01:43:16;99338.72;;;9.77;64.48
36404;BME280;22437;55.646;37.518;2022-09-04T01:46:17;99335.81;;;9.82;65.00
36404;BME280;22437;55.646;37.518;2022-09-04T01:48:56;99334.72;;;9.74;64.41
36404;BME280;22437;55.646;37.518;2022-09-04T01:51:28;99333.47;;;9.72;64.78
36404;BME280;22437;55.646;37.518;2022-09-04T01:54:11;99336.66;;;9.74;64.63
36404;BME280;22437;55.646;37.518;2022-09-04T01:56:55;99332.00;;;9.74;64.63
36404;BME280;22437;55.646;37.518;2022-09-04T01:59:38;99329.19;;;9.71;64.79
36404;BME280;22437;55.646;37.518;2022-09-04T02:02:17;99325.84;;;9.65;65.20
36404;BME280;22437;55.646;37.518;2022-09-04T02:04:55;99334.00;;;9.65;64.88
36404;BME280;22437;55.646;37.518;2022-09-04T02:07:37;99321.69;;;9.59;65.03
36404;BME280;22437;55.646;37.518;2022-09-04T02:10:19;99327.03;;;9.55;65.53
36404;BME280;22437;55.646;37.518;2022-09-04T02:12:58;99325.03;;;9.65;64.93
36404;BME280;22437;55.646;37.518;2022-09-04T02:15:37;99321.25;;;9.57;65.37
36404;BME280;22437;55.646;37.518;2022-09-04T02:18:20;99323.03;;;9.53;65.18
36404;BME280;22437;55.646;37.518;2022-09-04T02:20:58;99324.34;;;9.47;65.33
36404;BME280;22437;55.646;37.518;2022-09-04T02:23:35;99318.44;;;9.45;65.65
36404;BME280;22437;55.646;37.518;2022-09-04T02:26:11;99322.25;;;9.44;65.56
36404;BME280;22437;55.646;37.518;2022-09-04T02:28:49;99319.53;;;9.44;66.06
36404;BME280;22437;55.646;37.518;2022-09-04T02:31:31;99321.94;;;9.45;65.89
36404;BME280;22437;55.646;37.518;2022-09-04T02:34:08;99318.59;;;9.39;66.10
36404;BME280;22437;55.646;37.518;2022-09-04T02:36:44;99317.97;;;9.43;66.02
36404;BME280;22437;55.646;37.518;2022-09-04T02:39:28;99328.16;;;9.46;66.39
36404;BME280;22437;55.646;37.518;2022-09-04T02:42:09;99329.47;;;9.39;65.96
36404;BME280;22437;55.646;37.518;2022-09-04T02:44:47;99329.00;;;9.37;66.17
36404;BME280;22437;55.646;37.518;2022-09-04T02:47:29;99333.03;;;9.31;66.32
36404;BME280;22437;55.646;37.518;2022-09-04T02:50:09;99332.72;;;9.33;66.36
36404;BME280;22437;55.646;37.518;2022-09-04T02:52:54;99334.44;;;9.37;66.58
36404;BME280;22437;55.646;37.518;2022-09-04T02:55:40;99331.56;;;9.34;66.32
36404;BME280;22437;55.646;37.518;2022-09-04T02:58:20;99335.44;;;9.33;66.36
36404;BME280;22437;55.646;37.518;2022-09-04T03:00:59;99336.22;;;9.33;66.43
36404;BME280;22437;55.646;37.518;2022-09-04T03:03:38;99338.59;;;9.35;66.67
36404;BME280;22437;55.646;37.518;2022-09-04T03:06:14;99341.31;;;9.35;66.43
36404;BME280;22437;55.646;37.518;2022-09-04T03:08:52;99335.22;;;9.38;66.21
36404;BME280;22437;55.646;37.518;2022-09-04T03:11:31;99336.50;;;9.40;65.84
36404;BME280;22437;55.646;37.518;2022-09-04T03:14:06;99343.06;;;9.39;65.48
36404;BME280;22437;55.646;37.518;2022-09-04T03:16:42;99341.13;;;9.40;65.48
36404;BME280;22437;55.646;37.518;2022-09-04T03:19:18;99342.41;;;9.43;65.23
36404;BME280;22437;55.646;37.518;2022-09-04T03:21:54;99346.91;;;9.38;65.40
36404;BME280;22437;55.646;37.518;2022-09-04T03:24:28;99343.06;;;9.39;65.35
36404;BME280;22437;55.646;37.518;2022-09-04T03:27:04;99337.16;;;9.37;65.34
36404;BME280;22437;55.646;37.518;2022-09-04T03:29:39;99350.72;;;9.37;65.39
36404;BME280;22437;55.646;37.518;2022-09-04T03:32:16;99348.16;;;9.41;65.31
36404;BME280;22437;55.646;37.518;2022-09-04T03:34:52;99336.66;;;9.44;65.66
36404;BME280;22437;55.646;37.518;2022-09-04T03:37:37;99332.94;;;9.49;65.54
36404;BME280;22437;55.646;37.518;2022-09-04T03:40:31;99338.69;;;9.56;65.42
36404;BME280;22437;55.646;37.518;2022-09-04T03:43:32;99334.00;;;9.65;65.20
36404;BME280;22437;55.646;37.518;2022-09-04T03:46:16;99335.44;;;9.63;64.99
36404;BME280;22437;55.646;37.518;2022-09-04T03:48:59;99334.63;;;9.62;64.64
36404;BME280;22437;55.646;37.518;2022-09-04T03:51:40;99344.19;;;9.68;64.90
36404;BME280;22437;55.646;37.518;2022-09-04T03:54:14;99339.09;;;10.17;64.52
36404;BME280;22437;55.646;37.518;2022-09-04T03:57:06;99347.06;;;10.02;64.09
36404;BME280;22437;55.646;37.518;2022-09-04T03:59:52;99336.63;;;10.04;64.21
36404;BME280;22437;55.646;37.518;2022-09-04T04:02:34;99333.66;;;10.17;64.26
36404;BME280;22437;55.646;37.518;2022-09-04T04:05:24;99338.25;;;10.47;64.18
36404;BME280;22437;55.646;37.518;2022-09-04T04:08:07;99341.81;;;10.60;63.31
36404;BME280;22437;55.646;37.518;2022-09-04T04:10:47;99340.28;;;10.71;62.36
36404;BME280;22437;55.646;37.518;2022-09-04T04:16:30;99337.63;;;10.95;61.50
36404;BME280;22437;55.646;37.518;2022-09-04T04:19:32;99344.69;;;11.09;61.56
36404;BME280;22437;55.646;37.518;2022-09-04T04:22:16;99334.72;;;11.13;61.04
36404;BME280;22437;55.646;37.518;2022-09-04T04:25:05;99330.66;;;11.31;60.85
36404;BME280;22437;55.646;37.518;2022-09-04T04:27:51;99331.78;;;11.30;60.24
36404;BME280;22437;55.646;37.518;2022-09-04T04:30:22;99329.06;;;11.30;59.08
36404;BME280;22437;55.646;37.518;2022-09-04T04:33:10;99332.13;;;11.53;58.50
36404;BME280;22437;55.646;37.518;2022-09-04T04:35:51;99328.28;;;11.54;58.10
36404;BME280;22437;55.646;37.518;2022-09-04T04:38:33;99329.53;;;11.57;57.37
36404;BME280;22437;55.646;37.518;2022-09-04T04:41:17;99329.63;;;11.61;56.78
36404;BME280;22437;55.646;37.518;2022-09-04T04:44:08;99328.03;;;11.72;56.59
36404;BME280;22437;55.646;37.518;2022-09-04T04:46:50;99325.88;;;11.65;56.09
36404;BME280;22437;55.646;37.518;2022-09-04T04:49:36;99330.63;;;11.81;55.80
36404;BME280;22437;55.646;37.518;2022-09-04T04:52:23;99329.88;;;11.92;55.15
36404;BME280;22437;55.646;37.518;2022-09-04T04:55:12;99326.56;;;11.99;54.34
36404;BME280;22437;55.646;37.518;2022-09-04T04:57:57;99331.13;;;11.83;54.24
36404;BME280;22437;55.646;37.518;2022-09-04T05:00:33;99330.31;;;11.70;54.37
36404;BME280;22437;55.646;37.518;2022-09-04T05:03:11;99330.19;;;11.79;54.53
36404;BME280;22437;55.646;37.518;2022-09-04T05:05:53;99323.16;;;11.78;54.62
36404;BME280;22437;55.646;37.518;2022-09-04T05:08:32;99329.41;;;11.78;54.65
36404;BME280;22437;55.646;37.518;2022-09-04T05:11:12;99327.00;;;11.76;55.22
36404;BME280;22437;55.646;37.518;2022-09-04T05:13:59;99331.13;;;11.83;54.76
36404;BME280;22437;55.646;37.518;2022-09-04T05:16:37;99333.38;;;11.68;54.70
36404;BME280;22437;55.646;37.518;2022-09-04T05:19:27;99333.97;;;11.62;54.66
36404;BME280;22437;55.646;37.518;2022-09-04T05:22:04;99339.41;;;11.62;54.36
36404;BME280;22437;55.646;37.518;2022-09-04T05:24:45;99339.75;;;11.60;54.14
36404;BME280;22437;55.646;37.518;2022-09-04T05:27:47;99338.16;;;11.71;54.46
36404;BME280;22437;55.646;37.518;2022-09-04T05:30:27;99342.47;;;11.60;54.65
36404;BME280;22437;55.646;37.518;2022-09-04T05:33:10;99349.50;;;11.61;54.17
36404;BME280;22437;55.646;37.518;2022-09-04T05:35:47;99347.56;;;11.49;52.95
36404;BME280;22437;55.646;37.518;2022-09-04T05:38:26;99349.63;;;11.52;53.37
36404;BME280;22437;55.646;37.518;2022-09-04T05:41:03;99345.09;;;11.56;53.29
36404;BME280;22437;55.646;37.518;2022-09-04T05:43:47;99347.34;;;11.67;53.33
36404;BME280;22437;55.646;37.518;2022-09-04T05:46:39;99341.09;;;11.79;53.61
36404;BME280;22437;55.646;37.518;2022-09-04T05:49:17;99346.91;;;11.77;52.79
36404;BME280;22437;55.646;37.518;2022-09-04T05:55:22;99344.03;;;11.86;50.01
36404;BME280;22437;55.646;37.518;2022-09-04T05:58:11;99356.44;;;11.83;49.75
36404;BME280;22437;55.646;37.518;2022-09-04T06:00:52;99358.25;;;11.79;49.16
36404;BME280;22437;55.646;37.518;2022-09-04T06:06:33;99351.31;;;12.06;48.57
36404;BME280;22437;55.646;37.518;2022-09-04T06:15:13;99360.25;;;12.31;48.05
36404;BME280;22437;55.646;37.518;2022-09-04T06:20:52;99360.22;;;12.72;46.87
36404;BME280;22437;55.646;37.518;2022-09-04T06:23:45;99362.69;;;12.77;46.27
36404;BME280;22437;55.646;37.518;2022-09-04T06:26:33;99365.25;;;12.86;46.28
36404;BME280;22437;55.646;37.518;2022-09-04T06:29:17;99368.28;;;13.41;45.49
36404;BME280;22437;55.646;37.518;2022-09-04T06:32:10;99362.25;;;14.93;43.00
36404;BME280;22437;55.646;37.518;2022-09-04T06:35:05;99362.75;;;16.21;39.95
36404;BME280;22437;55.646;37.518;2022-09-04T06:37:50;99357.94;;;16.75;38.34
36404;BME280;22437;55.646;37.518;2022-09-04T06:40:35;99357.66;;;17.21;36.63
36404;BME280;22437;55.646;37.518;2022-09-04T06:43:15;99350.28;;;17.32;36.31
36404;BME280;22437;55.646;37.518;2022-09-04T06:45:49;99358.44;;;18.22;35.68
36404;BME280;22437;55.646;37.518;2022-09-04T06:48:40;99353.88;;;18.62;32.74
36404;BME280;22437;55.646;37.518;2022-09-04T06:51:21;99349.53;;;18.61;33.05
36404;BME280;22437;55.646;37.518;2022-09-04T06:57:36;99349.25;;;18.87;32.63
36404;BME280;22437;55.646;37.518;2022-09-04T07:00:10;99355.63;;;19.09;29.91
36404;BME280;22437;55.646;37.518;2022-09-04T07:03:12;99358.41;;;19.63;30.66
36404;BME280;22437;55.646;37.518;2022-09-04T07:05:52;99365.13;;;19.44;30.43
36404;BME280;22437;55.646;37.518;2022-09-04T07:08:31;99353.28;;;19.36;31.16
36404;BME280;22437;55.646;37.518;2022-09-04T07:11:15;99355.63;;;19.49;30.49
36404;BME280;22437;55.646;37.518;2022-09-04T07:17:06;99348.91;;;21.06;28.20
36404;BME280;22437;55.646;37.518;2022-09-04T07:20:12;99352.84;;;21.09;29.14
36404;BME280;22437;55.646;37.518;2022-09-04T07:23:01;99349.69;;;21.07;28.76
36404;BME280;22437;55.646;37.518;2022-09-04T07:25:43;99350.13;;;19.81;30.36
36404;BME280;22437;55.646;37.518;2022-09-04T07:28:30;99340.50;;;20.43;30.26
36404;BME280;22437;55.646;37.518;2022-09-04T07:31:07;99336.75;;;20.89;28.27
36404;BME280;22437;55.646;37.518;2022-09-04T07:33:44;99334.88;;;20.76;27.61
36404;BME280;22437;55.646;37.518;2022-09-04T07:36:19;99343.81;;;19.84;29.16
36404;BME280;22437;55.646;37.518;2022-09-04T07:39:06;99337.09;;;19.92;28.90
36404;BME280;22437;55.646;37.518;2022-09-04T07:41:45;99333.03;;;21.14;27.96
36404;BME280;22437;55.646;37.518;2022-09-04T07:44:22;99334.44;;;21.85;26.07
36404;BME280;22437;55.646;37.518;2022-09-04T07:47:03;99327.78;;;22.82;24.86
36404;BME280;22437;55.646;37.518;2022-09-04T07:49:49;99326.81;;;22.65;24.88
36404;BME280;22437;55.646;37.518;2022-09-04T07:52:31;99315.53;;;22.80;24.92
36404;BME280;22437;55.646;37.518;2022-09-04T07:55:16;99321.63;;;23.96;22.83
36404;BME280;22437;55.646;37.518;2022-09-04T07:58:16;99324.00;;;24.58;21.46
36404;BME280;22437;55.646;37.518;2022-09-04T08:01:02;99326.66;;;23.58;22.49
36404;BME280;22437;55.646;37.518;2022-09-04T08:03:49;99322.91;;;23.44;22.92
36404;BME280;22437;55.646;37.518;2022-09-04T08:09:07;99318.22;;;22.56;24.26
36404;BME280;22437;55.646;37.518;2022-09-04T08:11:51;99311.25;;;23.02;23.81
36404;BME280;22437;55.646;37.518;2022-09-04T08:14:39;99314.25;;;22.26;24.14
36404;BME280;22437;55.646;37.518;2022-09-04T08:17:34;99316.56;;;18.93;27.81
36404;BME280;22437;55.646;37.518;2022-09-04T08:20:27;99316.34;;;18.21;29.18
36404;BME280;22437;55.646;37.518;2022-09-04T08:23:16;99315.34;;;17.36;31.37
36404;BME280;22437;55.646;37.518;2022-09-04T08:25:58;99316.63;;;16.68;33.08
36404;BME280;22437;55.646;37.518;2022-09-04T08:28:43;99305.47;;;18.68;30.05
36404;BME280;22437;55.646;37.518;2022-09-04T08:31:22;99307.03;;;18.72;28.67
36404;BME280;22437;55.646;37.518;2022-09-04T08:37:05;99310.13;;;17.76;30.46
36404;BME280;22437;55.646;37.518;2022-09-04T08:39:48;99300.72;;;18.54;29.71
36404;BME280;22437;55.646;37.518;2022-09-04T08:42:50;99296.03;;;20.90;27.58
36404;BME280;22437;55.646;37.518;2022-09-04T08:45:57;99280.50;;;22.62;24.12
36404;BME280;22437;55.646;37.518;2022-09-04T08:58:48;99284.56;;;23.83;22.37
36404;BME280;22437;55.646;37.518;2022-09-04T09:01:51;99284.31;;;23.94;21.14
36404;BME280;22437;55.646;37.518;2022-09-04T09:05:02;99289.34;;;20.91;25.15
36404;BME280;22437;55.646;37.518;2022-09-04T09:14:33;99279.84;;;23.56;22.55
36404;BME280;22437;55.646;37.518;2022-09-04T09:17:26;99272.84;;;24.32;21.72
36404;BME280;22437;55.646;37.518;2022-09-04T09:20:24;99266.78;;;25.26;20.49
36404;BME280;22437;55.646;37.518;2022-09-04T09:23:29;99272.88;;;24.12;21.71
36404;BME280;22437;55.646;37.518;2022-09-04T09:26:21;99272.47;;;21.68;24.28
36404;BME280;22437;55.646;37.518;2022-09-04T09:38:53;99280.09;;;18.15;29.29
36404;BME280;22437;55.646;37.518;2022-09-04T09:48:18;99270.53;;;22.03;24.74
36404;BME280;22437;55.646;37.518;2022-09-04T09:55:02;99273.56;;;20.03;26.79
36404;BME280;22437;55.646;37.518;2022-09-04T10:01:14;99276.69;;;20.90;26.34
36404;BME280;22437;55.646;37.518;2022-09-04T10:04:28;99271.00;;;24.05;22.29
36404;BME280;22437;55.646;37.518;2022-09-04T10:10:38;99262.53;;;26.51;18.92
36404;BME280;22437;55.646;37.518;2022-09-04T10:13:50;99256.53;;;27.04;18.88
36404;BME280;22437;55.646;37.518;2022-09-04T10:17:03;99258.41;;;27.68;17.90
36404;BME280;22437;55.646;37.518;2022-09-04T10:20:09;99264.25;;;26.62;17.72
36404;BME280;22437;55.646;37.518;2022-09-04T10:29:27;99256.72;;;27.36;16.77
36404;BME280;22437;55.646;37.518;2022-09-04T10:35:21;99248.50;;;27.54;15.55
36404;BME280;22437;55.646;37.518;2022-09-04T10:38:23;99249.06;;;28.06;15.20
36404;BME280;22437;55.646;37.518;2022-09-04T10:41:15;99253.84;;;28.49;14.71
36404;BME280;22437;55.646;37.518;2022-09-04T10:46:54;99249.53;;;25.31;18.30
36404;BME280;22437;55.646;37.518;2022-09-04T10:49:56;99256.31;;;22.36;21.51
36404;BME280;22437;55.646;37.518;2022-09-04T10:55:55;99254.63;;;19.98;24.40
36404;BME280;22437;55.646;37.518;2022-09-04T10:58:33;99241.66;;;22.90;20.81
36404;BME280;22437;55.646;37.518;2022-09-04T11:04:40;99241.13;;;26.61;17.03
36404;BME280;22437;55.646;37.518;2022-09-04T11:07:37;99248.59;;;26.51;16.97
36404;BME280;22437;55.646;37.518;2022-09-04T11:10:30;99239.28;;;25.87;17.37
36404;BME280;22437;55.646;37.518;2022-09-04T11:16:55;99233.88;;;27.50;16.12
36404;BME280;22437;55.646;37.518;2022-09-04T11:26:10;99240.66;;;20.97;22.02
36404;BME280;22437;55.646;37.518;2022-09-04T11:29:11;99249.16;;;19.77;23.09
36404;BME280;22437;55.646;37.518;2022-09-04T11:32:09;99246.09;;;18.95;23.63
36404;BME280;22437;55.646;37.518;2022-09-04T11:35:09;99243.06;;;17.98;25.94
36404;BME280;22437;55.646;37.518;2022-09-04T11:38:02;99244.22;;;17.97;26.62
36404;BME280;22437;55.646;37.518;2022-09-04T11:50:13;99241.03;;;17.92;28.27
36404;BME280;22437;55.646;37.518;2022-09-04T11:56:25;99222.94;;;22.70;22.87
36404;BME280;22437;55.646;37.518;2022-09-04T11:59:23;99221.50;;;24.00;19.93
36404;BME280;22437;55.646;37.518;2022-09-04T12:02:18;99216.00;;;24.53;19.46
36404;BME280;22437;55.646;37.518;2022-09-04T12:05:18;99209.22;;;25.65;18.02
36404;BME280;22437;55.646;37.518;2022-09-04T12:08:04;99220.59;;;22.92;20.69
36404;BME280;22437;55.646;37.518;2022-09-04T12:11:10;99212.81;;;21.19;22.66
36404;BME280;22437;55.646;37.518;2022-09-04T12:14:07;99220.66;;;20.79;23.44
36404;BME280;22437;55.646;37.518;2022-09-04T12:16:59;99221.25;;;18.92;25.03
36404;BME280;22437;55.646;37.518;2022-09-04T12:26:37;99219.56;;;18.37;25.89
36404;BME280;22437;55.646;37.518;2022-09-04T12:39:10;99215.72;;;17.68;28.09
36404;BME280;22437;55.646;37.518;2022-09-04T12:41:59;99207.91;;;17.74;28.02
36404;BME280;22437;55.646;37.518;2022-09-04T12:44:38;99223.47;;;17.48;28.13
36404;BME280;22437;55.646;37.518;2022-09-04T12:47:22;99216.41;;;17.47;27.61
36404;BME280;22437;55.646;37.518;2022-09-04T12:50:22;99225.97;;;17.68;25.70
36404;BME280;22437;55.646;37.518;2022-09-04T12:53:09;99215.78;;;17.83;25.78
36404;BME280;22437;55.646;37.518;2022-09-04T12:55:46;99211.78;;;17.69;26.38
36404;BME280;22437;55.646;37.518;2022-09-04T12:58:24;99208.66;;;17.64;26.82
36404;BME280;22437;55.646;37.518;2022-09-04T13:01:11;99202.94;;;18.05;27.08
36404;BME280;22437;55.646;37.518;2022-09-04T13:03:50;99204.91;;;18.11;26.68
36404;BME280;22437;55.646;37.518;2022-09-04T13:06:37;99204.19;;;18.22;26.77
36404;BME280;22437;55.646;37.518;2022-09-04T13:09:22;99203.31;;;17.30;28.36
36404;BME280;22437;55.646;37.518;2022-09-04T13:12:03;99208.00;;;17.22;27.72
36404;BME280;22437;55.646;37.518;2022-09-04T13:14:59;99204.59;;;17.43;27.98
36404;BME280;22437;55.646;37.518;2022-09-04T13:17:43;99195.25;;;17.58;26.92
36404;BME280;22437;55.646;37.518;2022-09-04T13:20:22;99194.59;;;17.83;26.59
36404;BME280;22437;55.646;37.518;2022-09-04T13:23:05;99191.66;;;18.64;26.00
36404;BME280;22437;55.646;37.518;2022-09-04T13:25:47;99191.63;;;18.31;26.07
36404;BME280;22437;55.646;37.518;2022-09-04T13:28:32;99188.06;;;18.24;26.27
36404;BME280;22437;55.646;37.518;2022-09-04T13:34:17;99191.53;;;17.26;26.90
36404;BME280;22437;55.646;37.518;2022-09-04T13:36:58;99191.41;;;16.67;27.11
36404;BME280;22437;55.646;37.518;2022-09-04T13:39:55;99193.25;;;16.52;27.53
36404;BME280;22437;55.646;37.518;2022-09-04T13:45:43;99199.19;;;15.86;29.23
36404;BME280;22437;55.646;37.518;2022-09-04T13:48:28;99197.41;;;15.71;29.58
36404;BME280;22437;55.646;37.518;2022-09-04T13:51:01;99201.19;;;15.89;28.88
36404;BME280;22437;55.646;37.518;2022-09-04T13:53:51;99204.97;;;16.11;28.78
36404;BME280;22437;55.646;37.518;2022-09-04T13:56:30;99198.44;;;16.23;28.20
36404;BME280;22437;55.646;37.518;2022-09-04T13:59:06;99199.16;;;16.54;27.98
36404;BME280;22437;55.646;37.518;2022-09-04T14:01:41;99195.56;;;16.87;27.68
36404;BME280;22437;55.646;37.518;2022-09-04T14:04:18;99193.44;;;17.18;27.86
36404;BME280;22437;55.646;37.518;2022-09-04T14:06:58;99192.78;;;17.39;27.82
36404;BME280;22437;55.646;37.518;2022-09-04T14:09:36;99196.59;;;17.20;27.96
36404;BME280;22437;55.646;37.518;2022-09-04T14:12:38;99203.84;;;17.53;27.94
36404;BME280;22437;55.646;37.518;2022-09-04T14:15:31;99191.09;;;17.20;27.91
36404;BME280;22437;55.646;37.518;2022-09-04T14:18:22;99193.53;;;17.36;28.04
36404;BME280;22437;55.646;37.518;2022-09-04T14:20:56;99192.69;;;17.28;28.13
36404;BME280;22437;55.646;37.518;2022-09-04T14:23:40;99194.56;;;17.13;28.91
36404;BME280;22437;55.646;37.518;2022-09-04T14:26:20;99188.56;;;17.00;28.49
36404;BME280;22437;55.646;37.518;2022-09-04T14:29:01;99180.25;;;16.90;28.65
36404;BME280;22437;55.646;37.518;2022-09-04T14:31:39;99180.94;;;16.38;28.11
36404;BME280;22437;55.646;37.518;2022-09-04T14:34:25;99181.34;;;16.40;28.46
36404;BME280;22437;55.646;37.518;2022-09-04T14:37:10;99178.16;;;16.35;28.75
36404;BME280;22437;55.646;37.518;2022-09-04T14:39:50;99177.00;;;16.36;28.42
36404;BME280;22437;55.646;37.518;2022-09-04T14:42:43;99172.31;;;16.02;29.18
36404;BME280;22437;55.646;37.518;2022-09-04T14:48:17;99178.75;;;15.53;31.04
36404;BME280;22437;55.646;37.518;2022-09-04T14:50:54;99185.97;;;15.65;31.06
36404;BME280;22437;55.646;37.518;2022-09-04T14:53:31;99184.72;;;15.89;31.14
36404;BME280;22437;55.646;37.518;2022-09-04T14:56:19;99178.28;;;16.08;30.99
36404;BME280;22437;55.646;37.518;2022-09-04T14:58:56;99181.22;;;15.92;31.03
36404;BME280;22437;55.646;37.518;2022-09-04T15:01:31;99178.56;;;15.39;31.07
36404;BME280;22437;55.646;37.518;2022-09-04T15:04:10;99174.03;;;15.23;31.34
36404;BME280;22437;55.646;37.518;2022-09-04T15:06:45;99181.47;;;14.96;32.09
36404;BME280;22437;55.646;37.518;2022-09-04T15:09:44;99180.84;;;14.83;32.36
36404;BME280;22437;55.646;37.518;2022-09-04T15:12:18;99179.69;;;14.61;32.59
36404;BME280;22437;55.646;37.518;2022-09-04T15:14:55;99178.69;;;14.50;32.63
36404;BME280;22437;55.646;37.518;2022-09-04T15:17:36;99190.28;;;14.63;32.72
36404;BME280;22437;55.646;37.518;2022-09-04T15:20:12;99178.31;;;14.52;32.79
36404;BME280;22437;55.646;37.518;2022-09-04T15:22:53;99179.56;;;14.54;32.80
36404;BME280;22437;55.646;37.518;2022-09-04T15:25:42;99182.59;;;14.49;33.32
36404;BME280;22437;55.646;37.518;2022-09-04T15:28:36;99181.91;;;14.33;33.60
36404;BME280;22437;55.646;37.518;2022-09-04T15:31:10;99182.88;;;14.21;33.79
36404;BME280;22437;55.646;37.518;2022-09-04T15:33:46;99176.31;;;14.25;33.52
36404;BME280;22437;55.646;37.518;2022-09-04T15:36:21;99180.56;;;14.23;33.75
36404;BME280;22437;55.646;37.518;2022-09-04T15:39:06;99179.69;;;14.19;33.86
36404;BME280;22437;55.646;37.518;2022-09-04T15:41:47;99186.19;;;14.10;34.46
36404;BME280;22437;55.646;37.518;2022-09-04T15:44:23;99182.97;;;14.05;34.57
36404;BME280;22437;55.646;37.518;2022-09-04T15:47:02;99179.13;;;14.09;35.04
36404;BME280;22437;55.646;37.518;2022-09-04T15:49:49;99182.66;;;14.29;35.11
36404;BME280;22437;55.646;37.518;2022-09-04T15:52:28;99183.28;;;14.23;35.03
36404;BME280;22437;55.646;37.518;2022-09-04T15:55:09;99186.56;;;14.09;35.61
36404;BME280;22437;55.646;37.518;2022-09-04T16:01:04;99184.16;;;14.07;35.20
36404;BME280;22437;55.646;37.518;2022-09-04T16:03:53;99184.59;;;14.09;35.31
36404;BME280;22437;55.646;37.518;2022-09-04T16:06:31;99194.97;;;14.00;35.86
36404;BME280;22437;55.646;37.518;2022-09-04T16:09:09;99188.28;;;13.98;35.91
36404;BME280;22437;55.646;37.518;2022-09-04T16:11:47;99190.44;;;13.88;36.20
36404;BME280;22437;55.646;37.518;2022-09-04T16:14:26;99189.66;;;13.88;36.41
36404;BME280;22437;55.646;37.518;2022-09-04T16:17:04;99190.16;;;13.74;36.63
36404;BME280;22437;55.646;37.518;2022-09-04T16:19:41;99195.63;;;13.74;36.87
36404;BME280;22437;55.646;37.518;2022-09-04T16:22:27;99194.78;;;13.70;37.06
36404;BME280;22437;55.646;37.518;2022-09-04T16:25:07;99191.28;;;13.54;37.16
36404;BME280;22437;55.646;37.518;2022-09-04T16:27:45;99197.03;;;13.48;37.10
36404;BME280;22437;55.646;37.518;2022-09-04T16:30:29;99196.25;;;13.48;37.35
36404;BME280;22437;55.646;37.518;2022-09-04T16:33:01;99196.88;;;13.25;37.38
36404;BME280;22437;55.646;37.518;2022-09-04T16:35:56;99199.59;;;13.25;37.88
36404;BME280;22437;55.646;37.518;2022-09-04T16:38:31;99209.59;;;13.18;37.79
36404;BME280;22437;55.646;37.518;2022-09-04T16:41:14;99211.78;;;13.12;37.99
36404;BME280;22437;55.646;37.518;2022-09-04T16:47:12;99205.53;;;13.11;38.30
36404;BME280;22437;55.646;37.518;2022-09-04T16:49:49;99217.16;;;13.08;38.16
36404;BME280;22437;55.646;37.518;2022-09-04T16:52:33;99217.47;;;13.03;38.35